Time;durP1;ratioP1;P1;durP2;ratioP2;P2;SDS_P1;SDS_P2;PMS_P1;PMS_P2;Temp;Humidity;BMP_temperature;BMP_pressure;BME280_temperature;BME280_humidity;BME280_pressure;Samples;Min_cycle;Max_cycle;Signal;HPM_P1;HPM_P2
2022/07/14 00:02:07;;;;;;;5.43;1.77;;;14.10;99.90;;;;;;5045230;28;20458;-74
2022/07/14 00:04:32;;;;;;;5.22;1.55;;;14.10;99.90;;;;;;5059699;28;20052;-74
2022/07/14 00:06:58;;;;;;;5.07;1.80;;;14.10;99.90;;;;;;5051698;28;20153;-74
2022/07/14 00:09:24;;;;;;;4.40;1.30;;;14.10;99.90;;;;;;5033716;28;20037;-73
2022/07/14 00:11:50;;;;;;;5.00;1.67;;;14.00;99.90;;;;;;5033545;28;20040;-73
2022/07/14 00:14:15;;;;;;;4.68;1.50;;;14.00;99.90;;;;;;5043430;28;20062;-73
2022/07/14 00:16:41;;;;;;;7.60;1.98;;;14.00;99.90;;;;;;5044498;28;20028;-73
2022/07/14 00:19:07;;;;;;;5.13;1.55;;;14.00;99.90;;;;;;5072254;28;20079;-74
2022/07/14 00:21:32;;;;;;;7.63;2.30;;;13.90;99.90;;;;;;5044680;28;20048;-73
2022/07/14 00:23:58;;;;;;;9.13;2.25;;;13.90;99.90;;;;;;5052071;28;20080;-73
2022/07/14 00:26:23;;;;;;;6.38;2.33;;;13.80;99.90;;;;;;5050022;28;20048;-73
2022/07/14 00:28:49;;;;;;;10.05;2.42;;;13.80;99.90;;;;;;5061020;28;20047;-73
2022/07/14 00:31:15;;;;;;;6.05;1.80;;;13.80;99.90;;;;;;5043780;28;20475;-74
2022/07/14 00:33:40;;;;;;;7.75;2.60;;;13.70;99.90;;;;;;5067408;28;20037;-74
2022/07/14 00:36:07;;;;;;;4.10;1.58;;;13.70;99.90;;;;;;5066220;28;20117;-73
2022/07/14 00:38:33;;;;;;;6.18;1.80;;;13.60;99.90;;;;;;5061343;28;20613;-73
2022/07/14 00:40:59;;;;;;;5.25;1.40;;;13.60;99.90;;;;;;5057945;28;20057;-73
2022/07/14 00:43:25;;;;;;;5.22;1.40;;;13.50;99.90;;;;;;5045500;28;20060;-73
2022/07/14 00:45:50;;;;;;;5.50;1.60;;;13.50;99.90;;;;;;5054287;28;20127;-73
2022/07/14 00:48:19;;;;;;;4.75;1.80;;;13.50;99.90;;;;;;5051092;28;20423;-73
2022/07/14 00:50:45;;;;;;;6.53;1.55;;;13.50;99.90;;;;;;5052238;28;20052;-73
2022/07/14 00:53:12;;;;;;;3.90;1.58;;;13.40;99.90;;;;;;5018101;28;20063;-73
2022/07/14 00:55:40;;;;;;;5.93;2.10;;;13.40;99.90;;;;;;5067379;28;20040;-73
2022/07/14 00:58:06;;;;;;;5.10;1.73;;;13.40;99.90;;;;;;5048338;28;20079;-73
2022/07/14 01:00:32;;;;;;;6.97;1.88;;;13.40;99.90;;;;;;5051141;28;20174;-73
2022/07/14 01:02:57;;;;;;;4.50;2.00;;;13.40;99.90;;;;;;5036231;28;20044;-73
2022/07/14 01:05:23;;;;;;;6.78;1.88;;;13.30;99.90;;;;;;5068803;28;20466;-72
2022/07/14 01:07:49;;;;;;;6.47;1.90;;;13.30;99.90;;;;;;5085542;28;20051;-74
2022/07/14 01:10:14;;;;;;;6.88;2.33;;;13.30;99.90;;;;;;5053324;28;20401;-73
2022/07/14 01:12:45;;;;;;;6.75;2.17;;;13.30;99.90;;;;;;5049784;28;20043;-73
2022/07/14 01:15:11;;;;;;;6.05;2.20;;;13.20;99.90;;;;;;5051916;28;20470;-73
2022/07/14 01:17:37;;;;;;;6.68;2.13;;;13.20;99.90;;;;;;5052475;28;20066;-73
2022/07/14 01:20:04;;;;;;;5.97;2.40;;;13.20;99.90;;;;;;5055900;28;20032;-73
2022/07/14 01:22:30;;;;;;;6.07;2.08;;;13.10;99.90;;;;;;5069602;28;20079;-73
2022/07/14 01:24:56;;;;;;;5.53;2.08;;;13.10;99.90;;;;;;5083714;28;20426;-73
2022/07/14 01:27:21;;;;;;;4.20;2.38;;;13.10;99.90;;;;;;5052378;28;20040;-74
2022/07/14 01:29:47;;;;;;;7.50;1.90;;;13.10;99.90;;;;;;5050342;28;20041;-73
2022/07/14 01:32:12;;;;;;;4.80;2.03;;;13.10;99.90;;;;;;5046674;28;20041;-74
2022/07/14 01:34:38;;;;;;;7.43;2.05;;;13.00;99.90;;;;;;5049459;28;20048;-73
2022/07/14 01:37:03;;;;;;;5.25;1.65;;;13.00;99.90;;;;;;5041910;28;20514;-73
2022/07/14 01:39:29;;;;;;;4.97;2.30;;;13.00;99.90;;;;;;5069638;28;20564;-73
2022/07/14 01:41:55;;;;;;;2.33;1.70;;;13.00;99.90;;;;;;5052779;28;20049;-73
2022/07/14 01:44:21;;;;;;;2.67;1.70;;;12.90;99.90;;;;;;5068770;28;20386;-73
2022/07/14 01:46:47;;;;;;;2.20;1.77;;;12.80;99.90;;;;;;5062337;28;20112;-73
2022/07/14 01:49:13;;;;;;;4.40;1.73;;;12.80;99.90;;;;;;5040707;28;20541;-73
2022/07/14 01:51:38;;;;;;;2.08;1.70;;;12.80;99.90;;;;;;5065642;28;20453;-73
2022/07/14 01:54:04;;;;;;;4.10;1.80;;;12.70;99.90;;;;;;5042280;28;20067;-73
2022/07/14 01:56:30;;;;;;;5.97;2.17;;;12.70;99.90;;;;;;5051957;28;20045;-74
2022/07/14 01:58:56;;;;;;;2.60;1.42;;;12.60;99.90;;;;;;5069212;28;20516;-73
2022/07/14 02:01:40;;;;;;;2.92;1.67;;;12.60;99.90;;;;;;5052458;28;20467;-74
2022/07/14 02:04:10;;;;;;;2.45;1.60;;;12.50;99.90;;;;;;5046653;28;20043;-74
2022/07/14 02:06:48;;;;;;;1.15;0.90;;;12.50;99.90;;;;;;5032259;28;20056;-73
2022/07/14 02:09:14;;;;;;;1.13;0.80;;;12.50;99.90;;;;;;5043579;28;20424;-73
2022/07/14 02:14:24;;;;;;;1.65;1.00;;;12.40;99.90;;;;;;5053010;28;20379;-73
2022/07/14 02:16:50;;;;;;;0.95;0.90;;;12.40;99.90;;;;;;5050262;28;20374;-74
2022/07/14 02:19:16;;;;;;;2.78;0.93;;;12.30;99.90;;;;;;5050512;28;20036;-74
2022/07/14 02:21:42;;;;;;;2.00;1.08;;;12.30;99.90;;;;;;5047120;28;20144;-73
2022/07/14 02:24:09;;;;;;;3.53;1.30;;;12.20;99.90;;;;;;5053332;28;20276;-73
2022/07/14 02:26:36;;;;;;;1.73;1.48;;;12.20;99.90;;;;;;5050286;28;20037;-74
2022/07/14 02:29:05;;;;;;;4.05;1.65;;;12.20;99.90;;;;;;5049837;28;20041;-73
2022/07/14 02:31:31;;;;;;;1.60;1.00;;;12.10;99.90;;;;;;5037713;28;20059;-73
2022/07/14 02:33:57;;;;;;;1.85;1.27;;;12.10;99.90;;;;;;5051657;28;20087;-73
2022/07/14 02:36:23;;;;;;;1.52;1.42;;;12.10;99.90;;;;;;5050646;28;20068;-72
2022/07/14 02:38:49;;;;;;;1.88;1.70;;;12.10;99.90;;;;;;5054342;28;20056;-73
2022/07/14 02:41:15;;;;;;;1.30;1.20;;;12.00;99.90;;;;;;5054176;28;20106;-74
2022/07/14 02:43:40;;;;;;;1.30;1.20;;;12.00;99.90;;;;;;5053606;28;20071;-73
2022/07/14 02:46:07;;;;;;;1.83;1.40;;;12.00;99.90;;;;;;5052719;28;20037;-74
2022/07/14 02:48:32;;;;;;;1.98;1.30;;;11.90;99.90;;;;;;5033365;28;20056;-73
2022/07/14 02:50:59;;;;;;;1.38;1.00;;;11.90;99.90;;;;;;5053397;28;20048;-73
2022/07/14 02:53:25;;;;;;;1.33;1.20;;;11.80;99.90;;;;;;5046999;28;20178;-73
2022/07/14 02:55:50;;;;;;;1.35;1.17;;;11.80;99.90;;;;;;5052176;28;20127;-73
2022/07/14 02:58:18;;;;;;;0.93;0.90;;;11.80;99.90;;;;;;5053215;28;20174;-73
2022/07/14 03:00:43;;;;;;;1.70;0.95;;;11.70;99.90;;;;;;5053013;28;20100;-74
2022/07/14 03:03:09;;;;;;;0.70;0.70;;;11.70;99.90;;;;;;5053645;28;20040;-73
2022/07/14 03:05:35;;;;;;;0.80;0.75;;;11.70;99.90;;;;;;5070596;28;20047;-73
2022/07/14 03:08:00;;;;;;;2.03;1.10;;;11.60;99.90;;;;;;5050998;28;20044;-73
2022/07/14 03:10:26;;;;;;;0.82;0.80;;;11.60;99.90;;;;;;5052051;28;20068;-73
2022/07/14 03:12:52;;;;;;;0.80;0.80;;;11.60;99.90;;;;;;5053151;28;20044;-73
2022/07/14 03:15:18;;;;;;;0.60;0.60;;;11.60;99.90;;;;;;5051883;28;20040;-73
2022/07/14 03:17:44;;;;;;;0.77;0.77;;;11.60;99.90;;;;;;5060228;28;20082;-73
2022/07/14 03:20:12;;;;;;;1.10;1.08;;;11.50;99.90;;;;;;5034638;28;20048;-74
2022/07/14 03:22:38;;;;;;;1.23;0.90;;;11.50;99.90;;;;;;5050982;28;20052;-73
2022/07/14 03:25:05;;;;;;;1.05;0.88;;;11.40;99.90;;;;;;5051953;28;20040;-73
2022/07/14 03:27:31;;;;;;;1.38;1.13;;;11.40;99.90;;;;;;5053344;28;20068;-73
2022/07/14 03:29:56;;;;;;;1.63;0.93;;;11.40;99.90;;;;;;5070653;28;20075;-73
2022/07/14 03:32:22;;;;;;;1.77;1.20;;;11.40;99.90;;;;;;5053527;28;20040;-73
2022/07/14 03:34:48;;;;;;;0.95;0.90;;;11.40;99.90;;;;;;5036871;28;20259;-73
2022/07/14 03:37:13;;;;;;;1.50;1.02;;;11.40;99.90;;;;;;5049039;28;20103;-73
2022/07/14 03:39:39;;;;;;;1.42;1.10;;;11.40;99.90;;;;;;5049516;28;20057;-73
2022/07/14 03:42:05;;;;;;;2.38;1.13;;;11.40;99.90;;;;;;5049064;28;20375;-73
2022/07/14 03:44:31;;;;;;;2.40;1.45;;;11.40;99.90;;;;;;5040441;28;20052;-73
2022/07/14 03:46:56;;;;;;;1.40;1.00;;;11.30;99.90;;;;;;5042405;28;20486;-73
2022/07/14 03:49:22;;;;;;;0.98;0.68;;;11.30;99.90;;;;;;5028189;28;20045;-73
2022/07/14 03:51:48;;;;;;;1.00;0.90;;;11.30;99.90;;;;;;5049706;28;20041;-73
2022/07/14 03:54:13;;;;;;;1.08;0.93;;;11.30;99.90;;;;;;5049638;28;20417;-73
2022/07/14 03:56:39;;;;;;;1.35;0.80;;;11.40;99.90;;;;;;5049168;28;20127;-74
2022/07/14 03:59:05;;;;;;;0.93;0.90;;;11.40;99.90;;;;;;5049794;28;20052;-73
2022/07/14 04:01:31;;;;;;;1.48;0.75;;;11.40;99.90;;;;;;5040455;28;20570;-73
2022/07/14 04:03:57;;;;;;;1.05;0.80;;;11.40;99.90;;;;;;5037942;28;20120;-73
2022/07/14 04:06:22;;;;;;;0.77;0.77;;;11.40;99.90;;;;;;5043915;28;20506;-73
2022/07/14 04:08:48;;;;;;;1.65;0.73;;;11.50;99.90;;;;;;5047351;28;20068;-74
2022/07/14 04:11:14;;;;;;;1.27;0.80;;;11.50;99.90;;;;;;5048267;28;20041;-73
2022/07/14 04:13:40;;;;;;;1.10;0.90;;;11.60;99.90;;;;;;5065508;28;20029;-73
2022/07/14 04:16:06;;;;;;;1.17;0.90;;;11.70;99.90;;;;;;5048856;28;20082;-73
2022/07/14 04:18:31;;;;;;;0.98;0.90;;;11.70;99.90;;;;;;5048622;28;20123;-73
2022/07/14 04:20:57;;;;;;;2.72;1.00;;;11.90;99.90;;;;;;5048887;28;20056;-73
2022/07/14 04:23:22;;;;;;;3.13;0.70;;;11.90;99.90;;;;;;5028217;28;20041;-73
2022/07/14 04:25:48;;;;;;;1.98;0.80;;;12.00;99.90;;;;;;5047477;28;20060;-73
2022/07/14 04:28:15;;;;;;;2.55;1.13;;;12.10;99.90;;;;;;5048387;28;20060;-73
2022/07/14 04:30:41;;;;;;;2.05;1.60;;;12.20;99.90;;;;;;5049977;28;20041;-73
2022/07/14 04:33:07;;;;;;;3.03;1.85;;;12.30;99.90;;;;;;5047434;28;20048;-73
2022/07/14 04:35:33;;;;;;;2.13;1.80;;;12.40;99.90;;;;;;5046305;28;20041;-74
2022/07/14 04:37:59;;;;;;;4.30;2.40;;;12.40;99.90;;;;;;5047939;28;20056;-73
2022/07/14 04:40:24;;;;;;;12.95;3.60;;;12.40;99.90;;;;;;5048006;28;20057;-73
2022/07/14 04:42:50;;;;;;;5.55;2.72;;;12.40;99.90;;;;;;5048512;28;20056;-73
2022/07/14 04:45:16;;;;;;;5.40;2.13;;;12.50;99.90;;;;;;5046209;28;20475;-73
2022/07/14 04:47:41;;;;;;;4.32;2.75;;;12.50;99.90;;;;;;5046286;28;20041;-72
2022/07/14 04:52:52;;;;;;;10.98;3.50;;;12.60;99.90;;;;;;5043383;28;20413;-73
2022/07/14 04:55:18;;;;;;;5.18;2.72;;;12.60;99.90;;;;;;5043801;28;20041;-73
2022/07/14 04:57:44;;;;;;;5.30;2.60;;;12.70;99.90;;;;;;5045002;28;20498;-73
2022/07/14 05:00:11;;;;;;;17.35;3.67;;;12.70;99.90;;;;;;5044410;28;20040;-72
2022/07/14 05:02:37;;;;;;;3.90;2.67;;;12.80;99.90;;;;;;5064611;28;20049;-74
2022/07/14 05:05:03;;;;;;;5.80;3.60;;;12.90;99.90;;;;;;5065693;28;20386;-73
2022/07/14 05:07:29;;;;;;;8.05;3.60;;;13.00;99.90;;;;;;5047672;28;20128;-73
2022/07/14 05:09:55;;;;;;;10.70;3.97;;;13.10;99.90;;;;;;5039885;28;20120;-73
2022/07/14 05:12:20;;;;;;;9.55;3.60;;;13.20;99.90;;;;;;5045048;28;20447;-73
2022/07/14 05:14:46;;;;;;;6.45;3.20;;;13.30;99.90;;;;;;5046435;28;20155;-74
2022/07/14 05:17:11;;;;;;;6.53;3.50;;;13.40;99.90;;;;;;5049778;28;20072;-73
2022/07/14 05:19:38;;;;;;;8.35;3.83;;;13.50;99.90;;;;;;5050271;28;20115;-73
2022/07/14 05:22:03;;;;;;;6.60;3.13;;;13.60;99.90;;;;;;5053850;28;20422;-73
2022/07/14 05:24:29;;;;;;;6.97;3.65;;;13.70;99.90;;;;;;5067277;28;20041;-74
2022/07/14 05:26:58;;;;;;;10.88;4.07;;;13.70;99.90;;;;;;5048951;28;20037;-73
2022/07/14 05:29:23;;;;;;;7.00;3.03;;;13.70;99.90;;;;;;5062263;28;20075;-72
2022/07/14 05:31:49;;;;;;;7.75;3.58;;;13.80;99.90;;;;;;5050478;28;20447;-73
2022/07/14 05:34:14;;;;;;;6.97;2.80;;;13.90;99.90;;;;;;5043933;28;20065;-73
2022/07/14 05:36:40;;;;;;;10.65;3.35;;;14.00;99.90;;;;;;5034450;28;20044;-74
2022/07/14 05:39:06;;;;;;;6.97;2.70;;;14.20;99.90;;;;;;5054795;28;20128;-73
2022/07/14 05:41:31;;;;;;;8.15;3.25;;;14.20;99.90;;;;;;5052264;28;20041;-73
2022/07/14 05:43:57;;;;;;;10.15;2.88;;;14.30;99.90;;;;;;5069772;28;20044;-72
2022/07/14 05:46:22;;;;;;;10.77;3.15;;;14.40;99.90;;;;;;5037272;28;20048;-74
2022/07/14 05:48:48;;;;;;;8.00;2.78;;;14.50;99.90;;;;;;5052555;28;20036;-74
2022/07/14 05:53:50;;;;;;;6.22;2.20;;;14.80;99.90;;;;;;5088686;28;20050;-75
2022/07/14 05:56:19;;;;;;;7.88;2.55;;;15.00;99.90;;;;;;5070327;28;20048;-74
2022/07/14 05:58:45;;;;;;;10.35;2.55;;;16.10;99.90;;;;;;5086153;28;20040;-75
2022/07/14 06:01:12;;;;;;;6.43;1.95;;;18.00;99.90;;;;;;5069054;28;20043;-75
2022/07/14 06:03:38;;;;;;;4.45;1.70;;;19.80;99.90;;;;;;5071831;28;20040;-75
2022/07/14 06:06:05;;;;;;;4.25;1.70;;;21.40;99.90;;;;;;5056221;28;20028;-75
2022/07/14 06:08:32;;;;;;;5.22;1.55;;;23.20;98.30;;;;;;5092756;28;20032;-75
2022/07/14 06:10:58;;;;;;;5.25;1.65;;;23.80;99.90;;;;;;5073677;28;20256;-76
2022/07/14 06:13:25;;;;;;;4.47;1.30;;;24.90;98.00;;;;;;5084863;28;20029;-75
2022/07/14 06:15:51;;;;;;;4.63;1.30;;;25.70;94.60;;;;;;5061481;28;21508;-75
2022/07/14 06:18:17;;;;;;;7.45;1.30;;;25.50;92.30;;;;;;5070137;28;20125;-76
2022/07/14 06:20:43;;;;;;;5.10;1.25;;;26.40;91.90;;;;;;5071585;28;20047;-75
2022/07/14 06:23:11;;;;;;;3.53;0.93;;;26.80;91.60;;;;;;5073862;28;20035;-74
2022/07/14 06:25:40;;;;;;;3.97;1.00;;;27.40;90.30;;;;;;5071966;28;20535;-75
2022/07/14 06:28:06;;;;;;;4.72;1.20;;;25.60;84.60;;;;;;5053667;28;20131;-74
2022/07/14 06:30:33;;;;;;;2.45;0.88;;;27.20;88.40;;;;;;5071650;28;20121;-75
2022/07/14 06:33:00;;;;;;;7.93;1.40;;;27.20;84.90;;;;;;5072134;28;20036;-75
2022/07/14 06:35:25;;;;;;;3.58;0.80;;;27.90;79.10;;;;;;5069658;28;20055;-75
2022/07/14 06:37:52;;;;;;;4.10;1.38;;;28.50;84.50;;;;;;5067285;28;20436;-75
2022/07/14 06:40:18;;;;;;;5.05;1.20;;;28.80;82.70;;;;;;5070221;28;20458;-76
2022/07/14 06:42:44;;;;;;;4.32;1.10;;;29.20;81.00;;;;;;5072684;28;20068;-76
2022/07/14 06:45:10;;;;;;;4.40;1.10;;;28.90;77.10;;;;;;5066940;28;20098;-77
2022/07/14 06:47:36;;;;;;;6.38;1.33;;;29.00;76.90;;;;;;5069374;28;20047;-77
2022/07/14 06:50:02;;;;;;;3.70;1.30;;;29.20;75.30;;;;;;5089159;28;20497;-77
2022/07/14 06:52:27;;;;;;;5.20;1.02;;;28.20;70.10;;;;;;5083091;28;20055;-77
2022/07/14 06:54:53;;;;;;;3.70;1.10;;;28.10;73.30;;;;;;5071963;28;20063;-76
2022/07/14 06:57:19;;;;;;;3.20;1.02;;;29.10;75.00;;;;;;5057746;28;20677;-77
2022/07/14 06:59:45;;;;;;;4.68;0.93;;;29.70;75.50;;;;;;5069516;28;20037;-77
2022/07/14 07:02:11;;;;;;;2.95;0.77;;;29.60;72.40;;;;;;5072180;28;20044;-76
2022/07/14 07:04:37;;;;;;;12.45;2.00;;;29.80;73.60;;;;;;5064977;28;20040;-75
2022/07/14 07:07:03;;;;;;;4.15;1.00;;;28.80;73.50;;;;;;5039166;28;20032;-75
2022/07/14 07:09:28;;;;;;;4.25;0.80;;;28.10;74.50;;;;;;5065643;28;20041;-76
2022/07/14 07:11:54;;;;;;;3.42;0.93;;;27.50;75.00;;;;;;5070699;28;20359;-76
2022/07/14 07:14:20;;;;;;;3.80;0.85;;;26.60;76.90;;;;;;5054239;28;20136;-76
2022/07/14 07:16:47;;;;;;;3.88;0.90;;;26.40;77.70;;;;;;5070771;28;20422;-76
2022/07/14 07:19:13;;;;;;;4.32;0.80;;;26.30;77.20;;;;;;5071065;28;20063;-76
2022/07/14 07:21:39;;;;;;;7.35;1.23;;;26.70;77.80;;;;;;5068673;28;20489;-76
2022/07/14 07:24:04;;;;;;;5.80;1.23;;;26.20;77.30;;;;;;5050644;28;20044;-77
2022/07/14 07:26:39;;;;;;;5.30;0.70;;;25.50;78.90;;;;;;5074024;28;20035;-77
2022/07/14 07:29:05;;;;;;;3.90;0.90;;;24.40;78.60;;;;;;5073913;28;20068;-76
2022/07/14 07:31:32;;;;;;;3.10;0.77;;;23.80;81.60;;;;;;5070595;28;20036;-77
2022/07/14 07:33:59;;;;;;;3.65;1.15;;;23.60;83.30;;;;;;5068016;28;20481;-76
2022/07/14 07:36:25;;;;;;;2.25;0.70;;;24.00;80.90;;;;;;5067707;28;20109;-76
2022/07/14 07:38:51;;;;;;;2.97;0.80;;;24.10;79.60;;;;;;5072964;28;20075;-75
2022/07/14 07:41:16;;;;;;;2.60;0.85;;;24.00;81.70;;;;;;5090407;28;20032;-76
2022/07/14 07:43:42;;;;;;;6.18;1.13;;;23.80;81.40;;;;;;5069603;28;20037;-78
2022/07/14 07:46:08;;;;;;;2.50;0.68;;;22.80;81.20;;;;;;5060747;28;20863;-77
2022/07/14 07:48:34;;;;;;;2.00;0.63;;;23.60;83.90;;;;;;5053005;28;20421;-77
2022/07/14 07:51:00;;;;;;;3.35;0.60;;;24.30;83.60;;;;;;5070522;28;20389;-76
2022/07/14 07:53:26;;;;;;;3.20;0.60;;;25.70;81.50;;;;;;5083872;28;20058;-76
2022/07/14 07:55:52;;;;;;;2.42;0.68;;;25.50;76.90;;;;;;5068608;28;20040;-77
2022/07/14 07:58:18;;;;;;;3.47;0.90;;;24.30;76.80;;;;;;5064752;28;20050;-76
2022/07/14 08:00:44;;;;;;;5.32;0.82;;;24.70;78.80;;;;;;5082819;28;20048;-76
2022/07/14 08:03:10;;;;;;;4.85;0.95;;;24.80;77.40;;;;;;5069499;28;20100;-74
2022/07/14 08:05:36;;;;;;;2.03;0.75;;;24.40;76.70;;;;;;5072536;28;20072;-75
2022/07/14 08:08:01;;;;;;;7.25;1.00;;;25.70;77.00;;;;;;5054230;28;20059;-75
2022/07/14 08:10:28;;;;;;;2.70;0.80;;;25.60;74.20;;;;;;5071828;28;20083;-75
2022/07/14 08:12:53;;;;;;;1.63;0.88;;;25.50;74.50;;;;;;5069432;28;20068;-75
2022/07/14 08:15:19;;;;;;;2.00;0.65;;;25.50;75.90;;;;;;5070376;28;20449;-75
2022/07/14 08:17:45;;;;;;;2.63;0.60;;;25.80;77.20;;;;;;5056584;28;20134;-75
2022/07/14 08:20:12;;;;;;;2.90;0.80;;;25.70;77.40;;;;;;5089788;28;20035;-74
2022/07/14 08:22:38;;;;;;;3.15;0.70;;;25.40;76.80;;;;;;5072355;28;20094;-75
2022/07/14 08:25:06;;;;;;;2.38;0.75;;;24.10;77.90;;;;;;5052463;28;20044;-74
2022/07/14 08:27:32;;;;;;;3.03;1.00;;;24.40;80.20;;;;;;5061884;28;20040;-74
2022/07/14 08:29:58;;;;;;;21.38;1.85;;;23.90;79.40;;;;;;5052785;28;20114;-72
2022/07/14 08:32:39;;;;;;;3.45;0.70;;;24.20;79.90;;;;;;5083300;28;20025;-75
2022/07/14 08:35:08;;;;;;;1.98;0.50;;;24.20;75.00;;;;;;5068032;28;20101;-75
2022/07/14 08:37:34;;;;;;;2.20;0.60;;;23.30;73.70;;;;;;5069610;28;20041;-74
2022/07/14 08:40:04;;;;;;;1.42;0.57;;;23.70;78.60;;;;;;5053016;28;20123;-74
2022/07/14 08:42:30;;;;;;;2.25;0.73;;;23.80;77.20;;;;;;5069765;28;20098;-75
2022/07/14 08:44:56;;;;;;;2.60;0.60;;;23.20;78.10;;;;;;5069873;28;20554;-74
2022/07/14 08:47:22;;;;;;;2.30;0.75;;;23.50;80.10;;;;;;5054700;28;20044;-75
2022/07/14 08:49:48;;;;;;;2.15;0.60;;;23.60;80.30;;;;;;5076498;28;20127;-75
2022/07/14 08:52:16;;;;;;;3.67;0.80;;;23.60;80.40;;;;;;5076627;28;20056;-75
2022/07/14 08:54:43;;;;;;;3.08;0.80;;;23.40;79.40;;;;;;5071181;28;20128;-75
2022/07/14 08:57:08;;;;;;;2.83;0.70;;;23.40;79.20;;;;;;5076791;28;20044;-75
2022/07/14 08:59:34;;;;;;;5.05;1.05;;;22.90;79.80;;;;;;5076843;28;20040;-75
2022/07/14 09:01:59;;;;;;;2.00;0.90;;;22.80;78.60;;;;;;5072728;28;20051;-75
2022/07/14 09:04:25;;;;;;;2.30;0.60;;;23.00;81.20;;;;;;5063580;28;20090;-75
2022/07/14 09:06:53;;;;;;;2.70;0.73;;;23.10;81.70;;;;;;5060180;28;20097;-75
2022/07/14 09:09:24;;;;;;;9.23;1.10;;;22.80;79.70;;;;;;5094803;28;20092;-75
2022/07/14 09:11:52;;;;;;;2.38;0.70;;;23.10;82.80;;;;;;5076920;28;20044;-75
2022/07/14 09:14:19;;;;;;;25.45;2.00;;;23.30;80.50;;;;;;5076369;28;20040;-75
2022/07/14 09:16:45;;;;;;;3.88;0.70;;;22.80;81.40;;;;;;5093070;28;20389;-74
2022/07/14 09:19:13;;;;;;;3.35;0.75;;;23.10;81.90;;;;;;5069916;28;20044;-74
2022/07/14 09:21:42;;;;;;;2.25;0.88;;;23.00;82.10;;;;;;5074306;28;20389;-73
2022/07/14 09:24:08;;;;;;;3.40;1.00;;;23.00;82.40;;;;;;5089592;28;20401;-74
2022/07/14 09:26:52;;;;;;;1.80;0.70;;;22.80;83.10;;;;;;5068922;28;20044;-74
2022/07/14 09:29:25;;;;;;;2.45;0.70;;;22.40;81.30;;;;;;5064476;28;20044;-75
2022/07/14 09:31:50;;;;;;;2.95;0.60;;;22.50;82.80;;;;;;5063137;28;20056;-74
2022/07/14 09:34:28;;;;;;;2.72;0.70;;;22.70;84.10;;;;;;5091222;28;20024;-74
2022/07/14 09:37:13;;;;;;;1.45;0.60;;;22.50;81.40;;;;;;5055997;28;20651;-74
2022/07/14 09:39:56;;;;;;;7.20;0.73;;;22.90;83.20;;;;;;5071799;28;20542;-74
2022/07/14 09:42:48;;;;;;;3.65;0.98;;;23.00;83.00;;;;;;5067227;28;20068;-74
2022/07/14 09:45:14;;;;;;;3.28;0.73;;;23.30;83.50;;;;;;5073816;28;20044;-75
2022/07/14 09:47:52;;;;;;;2.88;0.70;;;23.50;83.80;;;;;;5075633;28;20044;-73
2022/07/14 09:50:39;;;;;;;2.90;0.50;;;23.40;78.90;;;;;;5056075;28;20093;-74
2022/07/14 09:53:14;;;;;;;2.47;0.57;;;23.10;78.40;;;;;;5039850;28;20045;-74
2022/07/14 09:55:53;;;;;;;1.60;0.60;;;22.50;80.70;;;;;;5059712;28;20041;-74
2022/07/14 09:58:20;;;;;;;33.95;3.28;;;22.40;82.00;;;;;;5067153;28;20060;-75
2022/07/14 10:00:57;;;;;;;1.90;0.60;;;22.70;82.70;;;;;;5073582;28;20485;-74
2022/07/14 10:03:25;;;;;;;1.35;0.60;;;22.90;84.10;;;;;;5072082;28;20456;-74
2022/07/14 10:05:53;;;;;;;6.00;1.00;;;23.10;81.90;;;;;;5060883;28;20123;-74
2022/07/14 10:08:23;;;;;;;1.35;0.60;;;23.00;80.30;;;;;;5058691;28;20517;-75
2022/07/14 10:10:50;;;;;;;2.75;0.52;;;22.80;81.40;;;;;;5052518;28;20095;-74
2022/07/14 10:13:17;;;;;;;3.33;0.60;;;22.60;83.30;;;;;;5070016;28;20059;-75
2022/07/14 10:15:43;;;;;;;2.88;0.93;;;22.80;83.10;;;;;;5070339;28;20020;-74
2022/07/14 10:18:09;;;;;;;2.75;0.90;;;23.00;84.00;;;;;;5062924;28;20134;-74
2022/07/14 10:20:35;;;;;;;4.43;0.80;;;23.00;82.10;;;;;;5053510;28;20052;-74
2022/07/14 10:23:02;;;;;;;2.55;0.70;;;23.20;84.70;;;;;;5067619;28;20043;-74
2022/07/14 10:25:28;;;;;;;3.47;0.70;;;23.20;81.80;;;;;;5051255;28;20171;-74
2022/07/14 10:27:54;;;;;;;3.30;0.60;;;22.90;81.40;;;;;;5059620;28;20119;-74
2022/07/14 10:30:35;;;;;;;2.65;0.70;;;23.10;84.80;;;;;;5067762;28;20036;-74
2022/07/14 10:33:39;;;;;;;1.87;0.67;;;23.30;84.60;;;;;;5068538;28;20041;-73
2022/07/14 10:36:17;;;;;;;2.85;0.70;;;23.60;83.30;;;;;;4995660;28;20052;-73
2022/07/14 10:39:03;;;;;;;0.98;0.40;;;23.50;80.10;;;;;;5008476;28;20054;-74
2022/07/14 10:41:47;;;;;;;1.63;0.70;;;23.60;82.10;;;;;;4987645;28;20050;-74
2022/07/14 10:44:31;;;;;;;2.03;0.80;;;23.70;83.20;;;;;;5034030;28;20089;-72
2022/07/14 10:47:08;;;;;;;2.75;0.38;;;23.20;79.20;;;;;;5049365;28;20041;-72
2022/07/14 10:50:05;;;;;;;3.40;0.50;;;23.30;81.30;;;;;;5059683;28;20024;-73
2022/07/14 10:52:32;;;;;;;2.65;0.65;;;23.20;82.70;;;;;;5060433;28;20048;-74
2022/07/14 10:55:21;;;;;;;3.45;0.60;;;23.10;82.70;;;;;;5055139;28;20031;-74
2022/07/14 10:57:59;;;;;;;6.13;1.20;;;23.20;82.40;;;;;;5089249;28;20039;-73
2022/07/14 11:00:47;;;;;;;3.67;0.68;;;23.30;81.30;;;;;;5074201;28;20721;-74
2022/07/14 11:03:20;;;;;;;2.22;0.68;;;23.50;82.10;;;;;;5057693;28;20089;-73
2022/07/14 11:06:03;;;;;;;1.50;0.70;;;23.40;81.70;;;;;;5074650;28;20070;-74
2022/07/14 11:08:29;;;;;;;1.73;0.75;;;23.20;78.50;;;;;;5092696;28;20048;-74
2022/07/14 11:10:57;;;;;;;1.67;0.50;;;23.10;81.40;;;;;;5088020;28;20076;-74
2022/07/14 11:13:23;;;;;;;2.92;0.65;;;22.90;81.50;;;;;;5072324;28;20127;-74
2022/07/14 11:15:57;;;;;;;2.38;0.80;;;22.60;80.80;;;;;;5071987;28;20055;-74
2022/07/14 11:18:26;;;;;;;3.03;0.77;;;22.80;83.90;;;;;;5054192;28;20056;-75
2022/07/14 11:21:17;;;;;;;2.60;0.60;;;22.70;82.70;;;;;;5079153;28;20115;-74
2022/07/14 11:23:46;;;;;;;3.78;0.60;;;22.70;82.00;;;;;;5074574;28;20044;-74
2022/07/14 11:26:47;;;;;;;1.90;0.57;;;22.80;83.90;;;;;;5074050;28;20117;-74
2022/07/14 11:29:13;;;;;;;1.67;0.60;;;22.80;83.50;;;;;;5066135;28;20051;-74
2022/07/14 11:31:53;;;;;;;2.92;0.55;;;22.40;83.10;;;;;;5053960;28;20094;-74
2022/07/14 11:37:09;;;;;;;2.45;0.60;;;22.50;84.00;;;;;;5073002;28;20044;-74
2022/07/14 11:39:40;;;;;;;1.02;0.40;;;22.50;85.40;;;;;;5073631;28;20509;-73
2022/07/14 11:42:12;;;;;;;1.15;0.60;;;22.60;86.00;;;;;;5073763;28;20082;-73
2022/07/14 11:44:40;;;;;;;1.77;0.50;;;22.40;83.20;;;;;;5073670;28;20047;-73
2022/07/14 11:47:07;;;;;;;2.65;0.73;;;22.40;86.10;;;;;;5058527;28;20063;-73
2022/07/14 11:49:35;;;;;;;2.10;0.70;;;22.40;85.90;;;;;;5052423;28;20059;-74
2022/07/14 11:52:02;;;;;;;2.38;0.60;;;22.10;84.40;;;;;;5052961;28;20053;-73
2022/07/14 11:54:28;;;;;;;1.45;0.50;;;22.20;85.80;;;;;;5074664;28;20113;-73
2022/07/14 11:57:08;;;;;;;4.38;0.73;;;22.10;85.90;;;;;;5062590;28;20489;-73
2022/07/14 11:59:40;;;;;;;1.08;0.47;;;22.10;86.30;;;;;;5073186;28;20052;-73
2022/07/14 12:02:07;;;;;;;1.70;0.57;;;22.20;85.00;;;;;;5091766;28;20044;-73
2022/07/14 12:04:32;;;;;;;2.63;0.70;;;22.60;85.10;;;;;;5052834;28;20127;-73
2022/07/14 12:06:58;;;;;;;1.73;0.80;;;22.90;84.00;;;;;;5056714;28;20265;-73
2022/07/14 12:09:30;;;;;;;2.58;0.57;;;23.20;86.30;;;;;;5091717;28;20040;-73
2022/07/14 12:11:56;;;;;;;2.90;0.43;;;23.50;85.30;;;;;;5073172;28;20170;-74
2022/07/14 12:14:22;;;;;;;3.22;0.80;;;23.80;83.20;;;;;;5073568;28;20389;-74
2022/07/14 12:16:48;;;;;;;1.63;0.50;;;24.10;82.90;;;;;;5091294;28;20047;-73
2022/07/14 12:19:13;;;;;;;4.18;0.90;;;24.20;83.20;;;;;;5062343;28;20036;-74
2022/07/14 12:21:39;;;;;;;2.78;0.63;;;24.10;81.50;;;;;;5071149;28;20158;-73
2022/07/14 12:24:10;;;;;;;2.90;0.68;;;24.10;81.00;;;;;;5053315;28;20390;-74
2022/07/14 12:26:37;;;;;;;14.68;1.83;;;23.90;81.30;;;;;;5071127;28;20666;-73
2022/07/14 12:29:04;;;;;;;2.38;0.60;;;23.90;83.20;;;;;;5061287;28;20048;-73
2022/07/14 12:31:36;;;;;;;1.27;0.60;;;23.90;83.20;;;;;;5090536;28;20363;-72
2022/07/14 12:34:02;;;;;;;3.38;0.60;;;23.60;79.20;;;;;;5063917;28;20108;-73
2022/07/14 12:36:30;;;;;;;2.15;0.82;;;23.50;81.70;;;;;;5052161;28;20162;-73
2022/07/14 12:38:58;;;;;;;2.53;0.60;;;23.50;83.20;;;;;;5070526;28;20056;-73
2022/07/14 12:41:25;;;;;;;2.15;0.50;;;23.60;82.20;;;;;;5052940;28;20055;-73
2022/07/14 12:43:51;;;;;;;2.72;0.60;;;23.50;79.90;;;;;;5058473;28;20425;-74
2022/07/14 12:46:24;;;;;;;3.47;0.68;;;22.90;79.70;;;;;;5070016;28;20047;-74
2022/07/14 12:48:49;;;;;;;2.85;0.63;;;23.10;82.70;;;;;;5090152;28;20134;-73
2022/07/14 12:51:18;;;;;;;3.50;0.90;;;23.00;82.20;;;;;;5071681;28;20792;-73
2022/07/14 12:54:18;;;;;;;2.05;0.93;;;23.00;84.50;;;;;;5069950;28;20057;-73
2022/07/14 12:56:43;;;;;;;2.15;0.80;;;22.90;82.90;;;;;;5053468;28;20110;-74
2022/07/14 12:59:28;;;;;;;4.05;0.65;;;22.70;80.90;;;;;;5088201;28;20482;-73
2022/07/14 13:01:56;;;;;;;1.98;0.80;;;22.60;80.00;;;;;;5052724;28;20513;-74